createdAt,value
2018-06-13T00:00:10.977Z,15.90
2018-06-13T00:01:07.934Z,15.90
2018-06-13T00:02:07.775Z,15.90
2018-06-13T00:03:05.441Z,15.90
2018-06-13T00:04:05.913Z,15.90
2018-06-13T00:05:10.943Z,15.80
2018-06-13T00:06:05.433Z,15.90
2018-06-13T00:07:05.292Z,15.80
2018-06-13T00:08:06.197Z,15.80
2018-06-13T00:09:05.749Z,15.80
2018-06-13T00:10:05.233Z,15.80
2018-06-13T00:11:05.815Z,15.80
2018-06-13T00:12:05.473Z,15.80
2018-06-13T00:13:09.051Z,15.80
2018-06-13T00:14:10.880Z,15.80
2018-06-13T00:15:08.574Z,15.80
2018-06-13T00:16:08.623Z,15.80
2018-06-13T00:17:05.765Z,15.80
2018-06-13T00:18:05.780Z,15.80
2018-06-13T00:19:10.578Z,15.80
2018-06-13T00:20:05.822Z,15.80
2018-06-13T00:21:05.237Z,15.80
2018-06-13T00:22:05.879Z,15.80
2018-06-13T00:23:06.194Z,15.80
2018-06-13T00:24:05.651Z,15.80
2018-06-13T00:25:05.461Z,15.80
2018-06-13T00:26:05.677Z,15.70
2018-06-13T00:27:09.375Z,15.70
2018-06-13T00:28:05.895Z,15.70
2018-06-13T00:29:08.726Z,15.70
2018-06-13T00:30:05.300Z,15.70
2018-06-13T00:31:06.076Z,15.70
2018-06-13T00:32:06.318Z,15.70
2018-06-13T00:33:05.522Z,15.70
2018-06-13T00:34:05.774Z,15.70
2018-06-13T00:35:05.360Z,15.70
2018-06-13T00:36:05.657Z,15.70
2018-06-13T00:37:05.399Z,15.70
2018-06-13T00:38:05.810Z,15.60
2018-06-13T00:39:06.021Z,15.70
2018-06-13T00:40:05.712Z,15.70
2018-06-13T00:41:06.075Z,15.70
2018-06-13T00:42:06.094Z,15.60
2018-06-13T00:43:06.030Z,15.60
2018-06-13T00:44:08.547Z,15.60
2018-06-13T00:45:11.351Z,15.60
2018-06-13T00:46:05.765Z,15.60
2018-06-13T00:47:10.583Z,15.60
2018-06-13T00:48:10.636Z,15.60
2018-06-13T00:49:06.136Z,15.60
2018-06-13T00:50:08.466Z,15.60
2018-06-13T00:51:14.159Z,15.60
2018-06-13T00:52:05.792Z,15.60
2018-06-13T00:53:05.775Z,15.60
2018-06-13T00:54:05.524Z,15.60
2018-06-13T00:55:05.282Z,15.60
2018-06-13T00:56:05.802Z,15.60
2018-06-13T00:57:10.639Z,15.60
2018-06-13T00:58:06.057Z,15.50
2018-06-13T00:59:05.879Z,15.50
2018-06-13T01:00:08.472Z,15.60
2018-06-13T01:01:05.939Z,15.50
2018-06-13T01:02:08.821Z,15.50
2018-06-13T01:03:07.961Z,15.50
2018-06-13T01:04:08.335Z,15.50
2018-06-13T01:05:05.921Z,15.50
2018-06-13T01:06:10.633Z,15.50
2018-06-13T01:07:05.874Z,15.50
2018-06-13T01:08:08.663Z,15.50
2018-06-13T01:09:05.353Z,15.50
2018-06-13T01:10:06.223Z,15.50
2018-06-13T01:11:05.709Z,15.50
2018-06-13T01:12:13.730Z,15.50
2018-06-13T01:13:05.480Z,15.50
2018-06-13T01:14:05.649Z,15.50
2018-06-13T01:15:08.687Z,15.40
2018-06-13T01:16:05.395Z,15.40
2018-06-13T01:17:07.971Z,15.40
2018-06-13T01:18:08.718Z,15.40
2018-06-13T01:19:05.308Z,15.40
2018-06-13T01:20:05.763Z,15.40
2018-06-13T01:21:05.291Z,15.40
2018-06-13T01:22:05.397Z,15.50
2018-06-13T01:23:08.616Z,15.40
2018-06-13T01:24:06.106Z,15.40
2018-06-13T01:25:06.273Z,15.40
2018-06-13T01:26:06.137Z,15.40
2018-06-13T01:27:08.370Z,15.40
2018-06-13T01:28:05.808Z,15.40
2018-06-13T01:29:05.967Z,15.40
2018-06-13T01:30:08.009Z,15.40
2018-06-13T01:31:08.234Z,15.40
2018-06-13T01:32:05.575Z,15.40
2018-06-13T01:33:05.570Z,15.40
2018-06-13T01:34:05.144Z,15.40
2018-06-13T01:35:11.127Z,15.30
2018-06-13T01:36:07.959Z,15.40
2018-06-13T01:37:05.415Z,15.30
2018-06-13T01:38:10.988Z,15.30
2018-06-13T01:39:06.419Z,15.30
2018-06-13T01:40:05.396Z,15.40
2018-06-13T01:41:06.101Z,15.40
2018-06-13T01:42:05.668Z,15.30
2018-06-13T01:43:05.319Z,15.30
2018-06-13T01:44:05.881Z,15.30
2018-06-13T01:45:05.948Z,15.30
2018-06-13T01:46:10.525Z,15.30
2018-06-13T01:47:05.921Z,15.30
2018-06-13T01:48:08.560Z,15.30
2018-06-13T01:49:08.645Z,15.30
2018-06-13T01:50:08.691Z,15.30
2018-06-13T01:51:10.196Z,15.30
2018-06-13T01:52:05.657Z,15.30
2018-06-13T01:53:07.816Z,15.30
2018-06-13T01:54:06.093Z,15.30
2018-06-13T01:55:05.565Z,15.30
2018-06-13T01:56:11.040Z,15.30
2018-06-13T01:57:15.879Z,15.30
2018-06-13T01:58:07.931Z,15.30
2018-06-13T01:59:10.397Z,15.30
2018-06-13T02:00:10.758Z,15.30
2018-06-13T02:01:05.730Z,15.30
2018-06-13T02:02:05.465Z,15.30
2018-06-13T02:03:06.155Z,15.30
2018-06-13T02:04:06.145Z,15.30
2018-06-13T02:05:06.370Z,15.30
2018-06-13T02:06:08.067Z,15.20
2018-06-13T02:07:07.956Z,15.30
2018-06-13T02:08:05.476Z,15.30
2018-06-13T02:09:06.089Z,15.30
2018-06-13T02:10:08.242Z,15.20
2018-06-13T02:11:10.720Z,15.30
2018-06-13T02:12:05.451Z,15.20
2018-06-13T02:13:08.574Z,15.20
2018-06-13T02:14:06.181Z,15.20
2018-06-13T02:15:05.947Z,15.20
2018-06-13T02:16:05.505Z,15.20
2018-06-13T02:17:06.112Z,15.20
2018-06-13T02:18:05.898Z,15.20
2018-06-13T02:19:07.987Z,15.10
2018-06-13T02:20:05.328Z,15.10
2018-06-13T02:21:06.017Z,15.10
2018-06-13T02:22:10.669Z,15.10
2018-06-13T02:23:08.680Z,15.10
2018-06-13T02:24:08.664Z,15.10
2018-06-13T02:25:08.666Z,15.00
2018-06-13T02:26:06.126Z,15.00
2018-06-13T02:27:05.609Z,15.00
2018-06-13T02:28:05.789Z,15.00
2018-06-13T02:29:05.914Z,15.00
2018-06-13T02:30:05.864Z,15.00
2018-06-13T02:31:06.141Z,15.00
2018-06-13T02:32:11.051Z,15.00
2018-06-13T02:33:08.119Z,15.00
2018-06-13T02:34:05.595Z,15.00
2018-06-13T02:35:09.699Z,14.90
2018-06-13T02:36:07.941Z,14.90
2018-06-13T02:37:05.956Z,14.90
2018-06-13T02:38:06.116Z,14.90
2018-06-13T02:39:06.178Z,14.90
2018-06-13T02:40:10.838Z,14.90
2018-06-13T02:41:10.709Z,14.80
2018-06-13T02:42:05.483Z,14.80
2018-06-13T02:43:09.001Z,14.80
2018-06-13T02:44:08.280Z,14.80
2018-06-13T02:45:05.831Z,14.80
2018-06-13T02:46:10.766Z,14.80
2018-06-13T02:47:10.404Z,14.70
2018-06-13T02:48:05.749Z,14.70
2018-06-13T02:49:05.227Z,14.70
2018-06-13T02:50:06.025Z,14.70
2018-06-13T02:51:05.559Z,14.70
2018-06-13T02:52:07.746Z,14.70
2018-06-13T02:53:05.235Z,14.70
2018-06-13T02:54:08.158Z,14.70
2018-06-13T02:55:05.615Z,14.70
2018-06-13T02:56:05.958Z,14.70
2018-06-13T02:57:06.104Z,14.70
2018-06-13T02:58:08.679Z,14.60
2018-06-13T02:59:06.221Z,14.60
2018-06-13T03:00:11.003Z,14.70
2018-06-13T03:01:10.327Z,14.60
2018-06-13T03:02:08.201Z,14.60
2018-06-13T03:03:08.266Z,14.60
2018-06-13T03:04:05.805Z,14.60
2018-06-13T03:05:09.411Z,14.60
2018-06-13T03:06:05.961Z,14.60
2018-06-13T03:07:05.789Z,14.60
2018-06-13T03:08:05.250Z,14.70
2018-06-13T03:09:06.171Z,14.70
2018-06-13T03:10:10.739Z,14.60
2018-06-13T03:11:10.694Z,14.60
2018-06-13T03:12:11.251Z,14.60
2018-06-13T03:13:05.836Z,14.70
2018-06-13T03:14:08.321Z,14.60
2018-06-13T03:15:05.812Z,14.70
2018-06-13T03:16:06.047Z,14.60
2018-06-13T03:17:11.204Z,14.60
2018-06-13T03:18:05.759Z,14.60
2018-06-13T03:19:05.593Z,14.60
2018-06-13T03:20:05.807Z,14.70
2018-06-13T03:21:05.838Z,14.70
2018-06-13T03:22:05.477Z,14.70
2018-06-13T03:23:10.490Z,14.70
2018-06-13T03:24:05.878Z,14.60
2018-06-13T03:25:05.780Z,14.70
2018-06-13T03:26:05.358Z,14.70
2018-06-13T03:27:05.999Z,14.70
2018-06-13T03:28:06.203Z,14.70
2018-06-13T03:29:11.120Z,14.60
2018-06-13T03:30:07.805Z,14.60
2018-06-13T03:31:07.776Z,14.60
2018-06-13T03:32:05.631Z,14.60
2018-06-13T03:33:05.201Z,14.60
2018-06-13T03:34:06.235Z,14.60
2018-06-13T03:35:08.627Z,14.60
2018-06-13T03:36:08.954Z,14.60
2018-06-13T03:37:05.565Z,14.60
2018-06-13T03:38:05.141Z,14.60
2018-06-13T03:39:06.398Z,14.60
2018-06-13T03:40:05.803Z,14.60
2018-06-13T03:41:09.273Z,14.60
2018-06-13T03:42:06.004Z,14.60
2018-06-13T03:43:05.777Z,14.60
2018-06-13T03:44:10.719Z,14.50
2018-06-13T03:45:05.402Z,14.60
2018-06-13T03:46:05.325Z,14.50
2018-06-13T03:47:06.047Z,14.50
2018-06-13T03:48:08.221Z,14.50
2018-06-13T03:49:10.811Z,14.50
2018-06-13T03:50:05.577Z,14.50
2018-06-13T03:51:06.008Z,14.50
2018-06-13T03:52:05.731Z,14.50
2018-06-13T03:53:06.002Z,14.50
2018-06-13T03:54:05.285Z,14.50
2018-06-13T03:55:07.958Z,14.50
2018-06-13T03:56:10.513Z,14.50
2018-06-13T03:57:07.754Z,14.50
2018-06-13T03:58:07.771Z,14.50
2018-06-13T03:59:05.558Z,14.50
2018-06-13T04:00:09.227Z,14.50
2018-06-13T04:01:09.169Z,14.50
2018-06-13T04:02:05.654Z,14.50
2018-06-13T04:03:10.814Z,14.50
2018-06-13T04:04:05.984Z,14.50
2018-06-13T04:05:05.802Z,14.40
2018-06-13T04:06:05.405Z,14.50
2018-06-13T04:07:06.318Z,14.50
2018-06-13T04:08:08.581Z,14.50
2018-06-13T04:09:06.330Z,14.50
2018-06-13T04:10:09.236Z,14.50
2018-06-13T04:11:06.212Z,14.50
2018-06-13T04:12:07.890Z,14.50
2018-06-13T04:13:05.342Z,14.40
2018-06-13T04:14:08.016Z,14.40
2018-06-13T04:15:08.042Z,14.50
2018-06-13T04:16:08.192Z,14.40
2018-06-13T04:17:05.764Z,14.40
2018-06-13T04:18:10.438Z,14.40
2018-06-13T04:19:05.928Z,14.40
2018-06-13T04:20:06.066Z,14.40
2018-06-13T04:21:05.855Z,14.50
2018-06-13T04:22:05.694Z,14.50
2018-06-13T04:23:05.533Z,14.50
2018-06-13T04:24:08.132Z,14.50
2018-06-13T04:25:08.807Z,14.40
2018-06-13T04:26:05.621Z,14.50
2018-06-13T04:27:05.454Z,14.50
2018-06-13T04:28:05.293Z,14.40
2018-06-13T04:29:08.449Z,14.40
2018-06-13T04:30:05.785Z,14.40
2018-06-13T04:31:05.339Z,14.50
2018-06-13T04:32:05.580Z,14.40
2018-06-13T04:33:05.498Z,14.50
2018-06-13T04:34:05.210Z,14.50
2018-06-13T04:35:05.575Z,14.50
2018-06-13T04:36:05.381Z,14.50
2018-06-13T04:37:08.785Z,14.50
2018-06-13T04:38:08.666Z,14.50
2018-06-13T04:39:10.301Z,14.50
2018-06-13T04:40:08.491Z,14.50
2018-06-13T04:41:08.991Z,14.50
2018-06-13T04:42:05.374Z,14.50
2018-06-13T04:43:05.786Z,14.40
2018-06-13T04:44:05.482Z,14.50
2018-06-13T04:45:13.247Z,14.50
2018-06-13T04:46:05.782Z,14.40
2018-06-13T04:47:05.996Z,14.40
2018-06-13T04:48:08.774Z,14.40
2018-06-13T04:49:05.261Z,14.40
2018-06-13T04:50:08.604Z,14.40
2018-06-13T04:51:06.088Z,14.40
2018-06-13T04:52:05.368Z,14.40
2018-06-13T04:53:08.391Z,14.40
2018-06-13T04:54:05.999Z,14.30
2018-06-13T04:55:05.671Z,14.40
2018-06-13T04:56:05.529Z,14.30
2018-06-13T04:57:09.009Z,14.30
2018-06-13T04:58:06.116Z,14.30
2018-06-13T04:59:08.522Z,14.30
2018-06-13T05:00:06.385Z,14.30
2018-06-13T05:01:05.733Z,14.30
2018-06-13T05:02:10.748Z,14.30
2018-06-13T05:03:08.388Z,14.30
2018-06-13T05:04:06.438Z,14.30
2018-06-13T05:05:06.121Z,14.30
2018-06-13T05:06:08.114Z,14.30
2018-06-13T05:07:10.638Z,14.20
2018-06-13T05:08:06.153Z,14.30
2018-06-13T05:09:07.323Z,14.30
2018-06-13T05:10:06.369Z,14.30
2018-06-13T05:11:06.359Z,14.30
2018-06-13T05:12:06.153Z,14.20
2018-06-13T05:13:08.514Z,14.30
2018-06-13T05:14:06.032Z,14.20
2018-06-13T05:15:05.818Z,14.20
2018-06-13T05:16:05.683Z,14.20
2018-06-13T05:17:08.139Z,14.20
2018-06-13T05:18:05.703Z,14.10
2018-06-13T05:19:05.341Z,14.20
2018-06-13T05:20:05.531Z,14.20
2018-06-13T05:21:05.905Z,14.10
2018-06-13T05:22:05.536Z,14.10
2018-06-13T05:23:09.104Z,14.10
2018-06-13T05:24:05.885Z,14.10
2018-06-13T05:25:05.785Z,14.10
2018-06-13T05:26:05.459Z,14.10
2018-06-13T05:27:07.801Z,14.10
2018-06-13T05:28:05.458Z,14.00
2018-06-13T05:29:07.879Z,14.10
2018-06-13T05:30:05.334Z,14.00
2018-06-13T05:31:05.706Z,14.00
2018-06-13T05:32:08.410Z,14.00
2018-06-13T05:33:05.997Z,14.00
2018-06-13T05:34:05.924Z,14.00
2018-06-13T05:35:10.804Z,14.00
2018-06-13T05:36:05.460Z,14.00
2018-06-13T05:37:05.400Z,14.00
2018-06-13T05:38:05.482Z,14.00
2018-06-13T05:39:05.529Z,13.90
2018-06-13T05:40:05.702Z,13.90
2018-06-13T05:41:10.399Z,13.90
2018-06-13T05:42:05.826Z,13.90
2018-06-13T05:43:05.931Z,13.90
2018-06-13T05:44:05.939Z,13.90
2018-06-13T05:45:05.673Z,13.80
2018-06-13T05:46:10.950Z,13.90
2018-06-13T05:47:09.650Z,13.90
2018-06-13T05:48:05.278Z,13.90
2018-06-13T05:49:08.645Z,13.90
2018-06-13T05:50:11.147Z,13.90
2018-06-13T05:51:08.556Z,13.90
2018-06-13T05:52:06.064Z,13.90
2018-06-13T05:53:08.958Z,13.90
2018-06-13T05:54:06.118Z,13.90
2018-06-13T05:55:06.227Z,13.90
2018-06-13T05:56:07.833Z,14.00
2018-06-13T05:57:10.331Z,14.00
2018-06-13T05:58:05.582Z,14.00
2018-06-13T05:59:05.513Z,14.10
2018-06-13T06:00:06.591Z,14.00
2018-06-13T06:01:10.655Z,14.10
2018-06-13T06:02:06.060Z,14.10
2018-06-13T06:03:10.751Z,14.00
2018-06-13T06:04:05.409Z,14.00
2018-06-13T06:05:05.496Z,14.10
2018-06-13T06:06:05.435Z,14.10
2018-06-13T06:07:05.646Z,14.10
2018-06-13T06:08:08.501Z,14.10
2018-06-13T06:09:06.229Z,14.10
2018-06-13T06:10:05.175Z,14.10
2018-06-13T06:11:10.662Z,14.10
2018-06-13T06:12:05.954Z,14.10
2018-06-13T06:13:09.383Z,14.10
2018-06-13T06:14:15.928Z,14.20
2018-06-13T06:15:05.750Z,14.10
2018-06-13T06:16:05.988Z,14.20
2018-06-13T06:17:05.641Z,14.20
2018-06-13T06:18:10.417Z,14.20
2018-06-13T06:19:07.789Z,14.20
2018-06-13T06:20:08.088Z,14.20
2018-06-13T06:21:06.036Z,14.20
2018-06-13T06:22:08.438Z,14.20
2018-06-13T06:23:08.551Z,14.20
2018-06-13T06:24:06.024Z,14.20
2018-06-13T06:25:08.753Z,14.30
2018-06-13T06:26:05.280Z,14.30
2018-06-13T06:27:06.124Z,14.30
2018-06-13T06:28:08.802Z,14.30
2018-06-13T06:29:05.753Z,14.30
2018-06-13T06:30:05.327Z,14.30
2018-06-13T06:31:08.445Z,14.30
2018-06-13T06:32:10.464Z,14.30
2018-06-13T06:33:06.141Z,14.30
2018-06-13T06:34:05.774Z,14.30
2018-06-13T06:35:08.648Z,14.30
2018-06-13T06:36:06.573Z,14.30
2018-06-13T06:37:05.590Z,14.30
2018-06-13T06:38:08.736Z,14.30
2018-06-13T06:39:10.363Z,14.30
2018-06-13T06:40:05.847Z,14.30
2018-06-13T06:41:05.501Z,14.30
2018-06-13T06:42:10.469Z,14.20
2018-06-13T06:43:06.154Z,14.30
2018-06-13T06:44:05.721Z,14.30
2018-06-13T06:45:12.229Z,14.30
2018-06-13T06:46:08.164Z,14.30
2018-06-13T06:47:05.758Z,14.30
2018-06-13T06:48:05.448Z,14.30
2018-06-13T06:49:09.481Z,14.30
2018-06-13T06:50:06.029Z,14.30
2018-06-13T06:51:05.775Z,14.30
2018-06-13T06:52:06.280Z,14.30
2018-06-13T06:53:07.919Z,14.30
2018-06-13T06:54:05.439Z,14.30
2018-06-13T06:55:10.477Z,14.20
2018-06-13T06:56:06.036Z,14.30
2018-06-13T06:57:08.308Z,14.30
2018-06-13T06:58:08.499Z,14.30
2018-06-13T06:59:06.006Z,14.30
2018-06-13T07:00:05.271Z,14.30
2018-06-13T07:01:05.139Z,14.30
2018-06-13T07:02:05.337Z,14.30
2018-06-13T07:03:08.772Z,14.30
2018-06-13T07:04:10.284Z,14.30
2018-06-13T07:05:06.045Z,14.30
2018-06-13T07:06:10.631Z,14.30
2018-06-13T07:07:10.723Z,14.30
2018-06-13T07:08:10.836Z,14.40
2018-06-13T07:09:05.256Z,14.40
2018-06-13T07:10:10.748Z,14.30
2018-06-13T07:11:05.285Z,14.30
2018-06-13T07:12:08.252Z,14.30
2018-06-13T07:13:08.378Z,14.30
2018-06-13T07:14:08.479Z,14.30
2018-06-13T07:15:05.997Z,14.30
2018-06-13T07:16:05.173Z,14.30
2018-06-13T07:17:13.739Z,14.30
2018-06-13T07:18:10.515Z,14.30
2018-06-13T07:19:05.359Z,14.30
2018-06-13T07:20:11.120Z,14.30
2018-06-13T07:21:05.521Z,14.30
2018-06-13T07:22:05.806Z,14.30
2018-06-13T07:23:05.640Z,14.30
2018-06-13T07:24:05.343Z,14.30
2018-06-13T07:25:08.454Z,14.30
2018-06-13T07:26:10.297Z,14.30
2018-06-13T07:27:09.526Z,14.30
2018-06-13T07:28:05.306Z,14.30
2018-06-13T07:29:09.287Z,14.30
2018-06-13T07:30:05.834Z,14.30
2018-06-13T07:31:05.895Z,14.30
2018-06-13T07:32:05.685Z,14.20
2018-06-13T07:33:08.774Z,14.30
2018-06-13T07:34:08.183Z,14.30
2018-06-13T07:35:05.235Z,14.30
2018-06-13T07:36:09.605Z,14.30
2018-06-13T07:37:06.317Z,14.30
2018-06-13T07:38:11.051Z,14.30
2018-06-13T07:39:05.376Z,14.30
2018-06-13T07:40:06.084Z,14.30
2018-06-13T07:41:05.791Z,14.30
2018-06-13T07:42:05.620Z,14.30
2018-06-13T07:43:05.451Z,14.30
2018-06-13T07:44:06.071Z,14.40
2018-06-13T07:45:08.089Z,14.40
2018-06-13T07:46:05.538Z,14.40
2018-06-13T07:47:11.045Z,14.40
2018-06-13T07:48:05.632Z,14.50
2018-06-13T07:49:05.382Z,14.50
2018-06-13T07:50:05.949Z,14.40
2018-06-13T07:51:05.858Z,14.50
2018-06-13T07:52:07.836Z,14.50
2018-06-13T07:53:07.920Z,14.50
2018-06-13T07:54:05.753Z,14.50
2018-06-13T07:55:09.399Z,14.50
2018-06-13T07:56:08.430Z,14.50
2018-06-13T07:57:06.262Z,14.50
2018-06-13T07:58:05.581Z,14.50
2018-06-13T07:59:05.559Z,14.50
2018-06-13T08:00:05.931Z,14.50
2018-06-13T08:01:05.235Z,14.60
2018-06-13T08:02:05.681Z,14.50
2018-06-13T08:03:05.839Z,14.50
2018-06-13T08:04:06.235Z,14.50
2018-06-13T08:05:06.486Z,14.60
2018-06-13T08:06:06.289Z,14.60
2018-06-13T08:07:09.118Z,14.60
2018-06-13T08:08:10.676Z,14.60
2018-06-13T08:09:06.006Z,14.60
2018-06-13T08:10:05.642Z,14.70
2018-06-13T08:11:06.015Z,14.70
2018-06-13T08:12:05.843Z,14.70
2018-06-13T08:13:05.488Z,14.80
2018-06-13T08:14:10.995Z,14.70
2018-06-13T08:15:06.386Z,14.80
2018-06-13T08:16:06.066Z,14.70
2018-06-13T08:17:05.431Z,14.80
2018-06-13T08:18:05.990Z,14.80
2018-06-13T08:19:05.645Z,14.80
2018-06-13T08:20:06.050Z,14.80
2018-06-13T08:21:06.113Z,14.80
2018-06-13T08:22:06.194Z,14.80
2018-06-13T08:23:07.886Z,14.80
2018-06-13T08:24:05.177Z,14.80
2018-06-13T08:25:08.743Z,14.80
2018-06-13T08:26:07.913Z,14.80
2018-06-13T08:27:08.095Z,14.80
2018-06-13T08:28:05.533Z,14.80
2018-06-13T08:29:05.746Z,14.80
2018-06-13T08:30:05.338Z,14.80
2018-06-13T08:31:08.349Z,14.80
2018-06-13T08:32:05.792Z,14.80
2018-06-13T08:33:08.094Z,14.80
2018-06-13T08:34:05.524Z,14.90
2018-06-13T08:35:05.680Z,14.90
2018-06-13T08:36:12.882Z,14.80
2018-06-13T08:37:10.366Z,14.80
2018-06-13T08:38:05.742Z,14.80
2018-06-13T08:39:09.087Z,14.80
2018-06-13T08:40:06.139Z,14.80
2018-06-13T08:41:13.707Z,14.80
2018-06-13T08:42:07.767Z,14.80
2018-06-13T08:43:05.348Z,14.80
2018-06-13T08:44:05.428Z,14.80
2018-06-13T08:45:06.116Z,14.80
2018-06-13T08:46:10.392Z,14.80
2018-06-13T08:47:05.719Z,14.80
2018-06-13T08:48:05.317Z,14.70
2018-06-13T08:49:11.010Z,14.80
2018-06-13T08:50:06.080Z,14.70
2018-06-13T08:51:06.047Z,14.80
2018-06-13T08:52:07.876Z,14.80
2018-06-13T08:53:05.336Z,14.80
2018-06-13T08:54:11.059Z,14.80
2018-06-13T08:55:05.673Z,14.80
2018-06-13T08:56:08.191Z,14.80
2018-06-13T08:57:05.631Z,14.80
2018-06-13T08:58:05.527Z,14.80
2018-06-13T08:59:06.253Z,14.80
2018-06-13T09:00:06.172Z,14.80
2018-06-13T09:01:06.441Z,14.80
2018-06-13T09:02:10.646Z,14.80
2018-06-13T09:03:08.680Z,14.80
2018-06-13T09:04:05.583Z,14.80
2018-06-13T09:05:08.235Z,14.80
2018-06-13T09:06:05.651Z,14.80
2018-06-13T09:07:05.493Z,14.80
2018-06-13T09:08:06.282Z,14.70
2018-06-13T09:09:08.510Z,14.70
2018-06-13T09:10:06.160Z,14.80
2018-06-13T09:11:06.276Z,14.70
2018-06-13T09:12:08.835Z,14.70
2018-06-13T09:13:11.427Z,14.70
2018-06-13T09:14:05.920Z,14.70
2018-06-13T09:15:05.848Z,14.70
2018-06-13T09:16:05.956Z,14.70
2018-06-13T09:17:11.197Z,14.70
2018-06-13T09:18:05.582Z,14.70
2018-06-13T09:19:08.456Z,14.70
2018-06-13T09:20:05.950Z,14.80
2018-06-13T09:21:07.807Z,14.80
2018-06-13T09:22:05.789Z,14.80
2018-06-13T09:23:10.988Z,14.80
2018-06-13T09:24:05.861Z,14.80
2018-06-13T09:25:05.847Z,14.80
2018-06-13T09:26:07.935Z,14.90
2018-06-13T09:27:05.537Z,14.80
2018-06-13T09:28:05.520Z,14.80
2018-06-13T09:29:05.624Z,14.90
2018-06-13T09:30:05.633Z,14.80
2018-06-13T09:31:06.145Z,14.90
2018-06-13T09:32:13.326Z,14.90
2018-06-13T09:33:05.770Z,14.90
2018-06-13T09:34:07.994Z,15.00
2018-06-13T09:35:05.911Z,15.00
2018-06-13T09:36:06.030Z,15.00
2018-06-13T09:37:05.402Z,15.00
2018-06-13T09:38:05.397Z,15.10
2018-06-13T09:39:08.628Z,15.10
2018-06-13T09:40:11.115Z,15.10
2018-06-13T09:41:05.233Z,15.20
2018-06-13T09:42:08.304Z,15.20
2018-06-13T09:43:10.558Z,15.30
2018-06-13T09:44:11.035Z,15.30
2018-06-13T09:45:05.652Z,15.30
2018-06-13T09:46:11.863Z,15.40
2018-06-13T09:47:06.898Z,15.40
2018-06-13T09:48:05.654Z,15.40
2018-06-13T09:49:05.701Z,15.50
2018-06-13T09:50:06.072Z,15.50
2018-06-13T09:51:06.154Z,15.60
2018-06-13T09:52:08.557Z,15.70
2018-06-13T09:53:08.546Z,15.70
2018-06-13T09:54:08.546Z,15.80
2018-06-13T09:55:08.487Z,15.80
2018-06-13T09:56:10.970Z,15.80
2018-06-13T09:57:05.784Z,15.90
2018-06-13T09:58:05.310Z,15.90
2018-06-13T09:59:06.094Z,16.00
2018-06-13T10:00:08.374Z,16.10
2018-06-13T10:01:05.946Z,16.10
2018-06-13T10:02:06.006Z,16.20
2018-06-13T10:03:09.326Z,16.20
2018-06-13T10:04:05.830Z,16.20
2018-06-13T10:05:05.534Z,16.30
2018-06-13T10:06:05.524Z,16.30
2018-06-13T10:07:05.833Z,16.30
2018-06-13T10:08:05.652Z,16.40
2018-06-13T10:09:05.252Z,16.40
2018-06-13T10:10:13.686Z,16.50
2018-06-13T10:11:06.279Z,16.50
2018-06-13T10:12:05.575Z,16.50
2018-06-13T10:13:05.462Z,16.20
2018-06-13T10:14:10.837Z,16.70
2018-06-13T10:15:06.275Z,16.70
2018-06-13T10:16:05.960Z,16.80
2018-06-13T10:17:06.464Z,16.80
2018-06-13T10:18:05.570Z,16.90
2018-06-13T10:19:05.569Z,16.90
2018-06-13T10:20:05.630Z,16.90
2018-06-13T10:21:10.784Z,17.00
2018-06-13T10:22:06.109Z,17.00
2018-06-13T10:23:06.032Z,17.00
2018-06-13T10:24:06.151Z,16.90
2018-06-13T10:25:06.277Z,17.00
2018-06-13T10:26:06.727Z,17.00
2018-06-13T10:27:06.538Z,17.00
2018-06-13T10:28:05.346Z,17.10
2018-06-13T10:29:07.962Z,17.10
2018-06-13T10:30:08.056Z,17.10
2018-06-13T10:31:05.988Z,17.10
2018-06-13T10:32:06.119Z,17.00
2018-06-13T10:33:06.079Z,17.00
2018-06-13T10:34:05.542Z,17.00
2018-06-13T10:35:05.471Z,17.00
2018-06-13T10:36:06.530Z,16.90
2018-06-13T10:37:05.639Z,16.90
2018-06-13T10:38:05.344Z,16.90
2018-06-13T10:39:05.504Z,16.90
2018-06-13T10:40:06.054Z,16.90
2018-06-13T10:41:06.232Z,16.80
2018-06-13T10:42:05.865Z,16.80
2018-06-13T10:43:08.573Z,16.80
2018-06-13T10:44:06.326Z,16.80
2018-06-13T10:45:05.380Z,16.80
2018-06-13T10:46:05.431Z,16.70
2018-06-13T10:47:05.780Z,16.70
2018-06-13T10:48:11.116Z,16.60
2018-06-13T10:49:06.236Z,16.60
2018-06-13T10:50:05.325Z,16.70
2018-06-13T10:51:06.151Z,16.60
2018-06-13T10:52:05.979Z,16.70
2018-06-13T10:53:05.711Z,16.60
2018-06-13T10:54:05.806Z,16.60
2018-06-13T10:55:11.014Z,16.60
2018-06-13T10:56:05.701Z,16.70
2018-06-13T10:57:11.011Z,16.70
2018-06-13T10:58:06.020Z,16.70
2018-06-13T10:59:13.352Z,16.80
2018-06-13T11:00:06.352Z,16.80
2018-06-13T11:01:07.957Z,16.90
2018-06-13T11:02:05.403Z,16.90
2018-06-13T11:03:05.880Z,16.90
2018-06-13T11:04:08.908Z,16.90
2018-06-13T11:05:05.439Z,17.00
2018-06-13T11:06:05.811Z,16.90
2018-06-13T11:07:07.746Z,17.00
2018-06-13T11:08:05.338Z,17.00
2018-06-13T11:09:07.811Z,17.10
2018-06-13T11:10:05.214Z,17.10
2018-06-13T11:11:08.241Z,17.10
2018-06-13T11:12:05.651Z,17.10
2018-06-13T11:13:05.544Z,17.10
2018-06-13T11:14:10.324Z,17.20
2018-06-13T11:15:05.636Z,17.20
2018-06-13T11:16:08.503Z,17.20
2018-06-13T11:17:05.983Z,17.20
2018-06-13T11:18:05.213Z,17.20
2018-06-13T11:19:07.826Z,17.20
2018-06-13T11:20:07.871Z,17.20
2018-06-13T11:21:10.529Z,17.20
2018-06-13T11:22:08.316Z,17.30
2018-06-13T11:23:09.192Z,17.20
2018-06-13T11:24:05.771Z,17.30
2018-06-13T11:25:13.691Z,17.30
2018-06-13T11:26:05.300Z,14.10
2018-06-13T11:27:07.939Z,17.30
2018-06-13T11:28:08.211Z,17.30
2018-06-13T11:29:05.397Z,17.30
2018-06-13T11:30:05.800Z,17.30
2018-06-13T11:31:08.611Z,17.30
2018-06-13T11:32:05.690Z,17.20
2018-06-13T11:33:05.805Z,17.30
2018-06-13T11:34:05.272Z,17.30
2018-06-13T11:35:05.909Z,17.20
2018-06-13T11:36:05.974Z,17.20
2018-06-13T11:37:08.710Z,17.20
2018-06-13T11:38:05.294Z,17.20
2018-06-13T11:39:08.276Z,17.00
2018-06-13T11:40:08.328Z,17.10
2018-06-13T11:41:05.740Z,17.00
2018-06-13T11:42:05.792Z,17.00
2018-06-13T11:43:05.737Z,16.90
2018-06-13T11:44:10.457Z,16.90
2018-06-13T11:45:06.073Z,16.90
2018-06-13T11:46:10.819Z,16.80
2018-06-13T11:47:05.583Z,16.80
2018-06-13T11:48:08.940Z,16.80
2018-06-13T11:49:05.556Z,16.80
2018-06-13T11:50:05.327Z,16.80
2018-06-13T11:51:06.112Z,16.80
2018-06-13T11:52:05.792Z,16.90
2018-06-13T11:53:05.908Z,16.90
2018-06-13T11:54:05.862Z,16.90
2018-06-13T11:55:08.171Z,17.00
2018-06-13T11:56:05.621Z,17.00
2018-06-13T11:57:06.288Z,17.00
2018-06-13T11:58:08.215Z,17.10
2018-06-13T11:59:10.722Z,17.00
2018-06-13T12:00:05.376Z,17.10
2018-06-13T12:01:08.450Z,17.20
2018-06-13T12:02:05.459Z,17.10
2018-06-13T12:03:05.100Z,17.20
2018-06-13T12:04:08.573Z,17.20
2018-06-13T12:05:06.009Z,17.20
2018-06-13T12:06:08.194Z,17.20
2018-06-13T12:07:05.731Z,17.20
2018-06-13T12:08:10.337Z,17.20
2018-06-13T12:09:10.456Z,17.20
2018-06-13T12:10:05.943Z,17.30
2018-06-13T12:11:15.780Z,17.30
2018-06-13T12:12:05.353Z,17.30
2018-06-13T12:13:06.021Z,17.40
2018-06-13T12:14:10.396Z,17.40
2018-06-13T12:15:05.682Z,17.50
2018-06-13T12:16:08.739Z,17.50
2018-06-13T12:17:06.373Z,17.50
2018-06-13T12:18:05.955Z,17.60
2018-06-13T12:19:10.909Z,17.60
2018-06-13T12:20:05.807Z,17.60
2018-06-13T12:21:05.805Z,17.70
2018-06-13T12:22:10.802Z,17.70
2018-06-13T12:23:07.797Z,17.70
2018-06-13T12:24:05.391Z,17.70
2018-06-13T12:25:05.713Z,17.80
2018-06-13T12:26:08.683Z,17.80
2018-06-13T12:27:05.466Z,17.80
2018-06-13T12:28:10.522Z,17.80
2018-06-13T12:29:06.187Z,17.80
2018-06-13T12:30:05.532Z,17.80
2018-06-13T12:31:06.205Z,17.80
2018-06-13T12:32:06.271Z,17.80
2018-06-13T12:33:05.188Z,17.70
2018-06-13T12:34:08.448Z,17.70
2018-06-13T12:35:06.091Z,17.70
2018-06-13T12:36:08.276Z,17.60
2018-06-13T12:37:05.959Z,17.70
2018-06-13T12:38:06.171Z,17.60
2018-06-13T12:39:05.909Z,17.60
2018-06-13T12:40:08.550Z,17.50
2018-06-13T12:41:05.246Z,17.50
2018-06-13T12:42:05.548Z,17.50
2018-06-13T12:43:11.119Z,17.40
2018-06-13T12:44:05.753Z,17.40
2018-06-13T12:45:05.687Z,17.30
2018-06-13T12:46:05.900Z,17.30
2018-06-13T12:47:05.553Z,17.30
2018-06-13T12:48:08.569Z,17.10
2018-06-13T12:49:08.621Z,17.20
2018-06-13T12:50:06.126Z,17.20
2018-06-13T12:51:10.880Z,17.20
2018-06-13T12:52:05.916Z,17.20